createdAt,value
2023-01-11T00:00:47.905Z,2.05
2023-01-11T00:03:14.885Z,2.38
2023-01-11T00:05:43.233Z,2.70
2023-01-11T00:08:10.467Z,2.22
2023-01-11T00:10:37.599Z,2.70
2023-01-11T00:13:07.485Z,2.50
2023-01-11T00:15:36.568Z,2.80
2023-01-11T00:18:03.557Z,2.33
2023-01-11T00:20:30.499Z,2.67
2023-01-11T00:22:57.360Z,2.25
2023-01-11T00:25:24.412Z,2.67
2023-01-11T00:27:51.443Z,2.63
2023-01-11T00:30:20.972Z,2.53
2023-01-11T00:32:47.771Z,2.28
2023-01-11T00:35:15.103Z,2.35
2023-01-11T00:37:41.901Z,2.72
2023-01-11T00:40:09.251Z,2.70
2023-01-11T00:42:54.577Z,2.22
2023-01-11T00:45:40.066Z,3.70
2023-01-11T00:48:07.643Z,2.58
2023-01-11T00:50:37.702Z,2.75
2023-01-11T00:53:05.492Z,2.50
2023-01-11T00:55:32.552Z,2.10
2023-01-11T00:58:00.404Z,2.25
2023-01-11T01:00:28.509Z,2.45
2023-01-11T01:05:22.472Z,2.65
2023-01-11T01:07:49.559Z,2.05
2023-01-11T01:10:18.205Z,2.60
2023-01-11T01:13:03.777Z,2.53
2023-01-11T01:15:31.141Z,2.22
2023-01-11T01:17:57.983Z,2.70
2023-01-11T01:20:25.743Z,2.70
2023-01-11T01:22:52.817Z,2.50
2023-01-11T01:25:20.038Z,2.33
2023-01-11T01:27:46.977Z,2.33
2023-01-11T01:30:14.440Z,2.42
2023-01-11T01:32:41.297Z,2.40
2023-01-11T01:35:08.651Z,2.42
2023-01-11T01:37:35.517Z,1.80
2023-01-11T01:40:02.355Z,2.65
2023-01-11T01:42:29.331Z,2.47
2023-01-11T01:44:56.508Z,2.38
2023-01-11T01:47:31.271Z,1.90
2023-01-11T01:50:00.852Z,2.10
2023-01-11T01:52:29.400Z,1.92
2023-01-11T01:55:00.691Z,2.20
2023-01-11T01:57:33.804Z,1.90
2023-01-11T02:00:05.880Z,1.70
2023-01-11T02:02:33.304Z,1.60
2023-01-11T02:05:00.363Z,1.88
2023-01-11T02:07:31.601Z,1.83
2023-01-11T02:10:10.431Z,1.70
2023-01-11T02:12:45.540Z,1.92
2023-01-11T02:15:13.604Z,1.70
2023-01-11T02:20:29.958Z,1.67
2023-01-11T02:23:44.871Z,1.90
2023-01-11T02:26:46.535Z,1.92
2023-01-11T02:29:22.468Z,2.13
2023-01-11T02:31:57.077Z,2.17
2023-01-11T02:34:41.858Z,1.85
2023-01-11T02:37:13.662Z,1.73
2023-01-11T02:39:58.370Z,1.52
2023-01-11T02:42:57.696Z,1.33
2023-01-11T02:45:55.230Z,2.00
2023-01-11T02:51:12.403Z,1.65
2023-01-11T02:53:56.539Z,2.08
2023-01-11T02:56:27.335Z,1.63
2023-01-11T02:58:57.773Z,1.63
2023-01-11T03:01:25.564Z,1.60
2023-01-11T03:03:53.655Z,1.65
2023-01-11T03:06:27.555Z,1.52
2023-01-11T03:08:57.364Z,1.65
2023-01-11T03:11:58.026Z,1.50
2023-01-11T03:14:47.936Z,1.40
2023-01-11T03:17:32.747Z,1.63
2023-01-11T03:20:28.854Z,1.40
2023-01-11T03:23:10.977Z,1.48
2023-01-11T03:25:45.798Z,1.60
2023-01-11T03:28:16.614Z,1.80
2023-01-11T03:31:04.674Z,1.35
2023-01-11T03:34:06.647Z,1.63
2023-01-11T03:36:41.662Z,1.70
2023-01-11T03:39:17.747Z,1.63
2023-01-11T03:41:45.970Z,1.10
2023-01-11T03:44:14.932Z,1.63
2023-01-11T03:46:50.303Z,1.35
2023-01-11T03:49:23.105Z,1.40
2023-01-11T03:51:53.559Z,1.33
2023-01-11T03:54:26.642Z,1.55
2023-01-11T03:57:21.289Z,1.20
2023-01-11T03:59:49.321Z,1.30
2023-01-11T04:02:21.712Z,1.40
2023-01-11T04:04:48.640Z,1.20
2023-01-11T04:07:15.675Z,1.33
2023-01-11T04:09:42.721Z,1.20
2023-01-11T04:12:09.472Z,1.77
2023-01-11T04:14:36.532Z,1.23
2023-01-11T04:17:04.278Z,1.10
2023-01-11T04:19:31.198Z,1.00
2023-01-11T04:21:57.962Z,1.15
2023-01-11T04:24:24.914Z,1.10
2023-01-11T04:26:55.551Z,1.10
2023-01-11T04:29:22.449Z,1.40
2023-01-11T04:31:49.275Z,0.93
2023-01-11T04:34:16.327Z,1.10
2023-01-11T04:36:43.552Z,1.00
2023-01-11T04:39:10.841Z,1.40
2023-01-11T04:41:57.188Z,0.97
2023-01-11T04:44:24.534Z,0.98
2023-01-11T04:46:51.596Z,1.10
2023-01-11T04:49:18.424Z,0.77
2023-01-11T04:51:45.410Z,0.90
2023-01-11T04:54:12.321Z,1.15
2023-01-11T04:56:39.399Z,0.85
2023-01-11T04:59:06.217Z,1.20
2023-01-11T05:01:35.281Z,1.00
2023-01-11T05:04:02.067Z,1.20
2023-01-11T05:06:28.933Z,0.98
2023-01-11T05:08:55.828Z,0.90
2023-01-11T05:11:22.842Z,1.05
2023-01-11T05:13:49.784Z,1.10
2023-01-11T05:16:23.913Z,0.98
2023-01-11T05:18:53.574Z,1.52
2023-01-11T05:21:24.041Z,1.40
2023-01-11T05:23:53.470Z,0.90
2023-01-11T05:26:26.792Z,0.90
2023-01-11T05:28:55.974Z,0.80
2023-01-11T05:31:23.484Z,1.33
2023-01-11T05:33:50.406Z,0.82
2023-01-11T05:36:20.378Z,1.00
2023-01-11T05:38:48.777Z,1.10
2023-01-11T05:41:17.031Z,1.05
2023-01-11T05:44:04.396Z,1.13
2023-01-11T05:46:32.327Z,1.00
2023-01-11T05:49:01.825Z,1.00
2023-01-11T05:51:32.973Z,0.90
2023-01-11T05:54:01.103Z,1.00
2023-01-11T05:56:28.916Z,1.10
2023-01-11T05:58:55.822Z,1.50
2023-01-11T06:01:24.353Z,1.50
2023-01-11T06:03:51.807Z,1.55
2023-01-11T06:06:20.031Z,1.60
2023-01-11T06:11:14.883Z,1.05
2023-01-11T06:16:15.008Z,1.00
2023-01-11T06:18:47.739Z,0.93
2023-01-11T06:21:15.953Z,1.02
2023-01-11T06:26:13.700Z,0.90
2023-01-11T06:28:41.298Z,1.00
2023-01-11T06:31:08.275Z,1.10
2023-01-11T06:33:36.665Z,0.98
2023-01-11T06:36:06.786Z,0.80
2023-01-11T06:38:34.051Z,1.15
2023-01-11T06:41:03.337Z,1.00
2023-01-11T06:43:31.974Z,0.93
2023-01-11T06:45:59.459Z,1.10
2023-01-11T06:48:27.385Z,1.13
2023-01-11T06:50:56.799Z,1.00
2023-01-11T06:53:27.449Z,1.20
2023-01-11T06:55:57.759Z,1.10
2023-01-11T06:58:25.987Z,1.10
2023-01-11T07:00:55.048Z,1.15
2023-01-11T07:03:26.164Z,1.00
2023-01-11T07:05:56.567Z,0.85
2023-01-11T07:08:24.861Z,1.40
2023-01-11T07:13:19.067Z,0.80
2023-01-11T07:15:51.726Z,0.80
2023-01-11T07:18:19.652Z,1.20
2023-01-11T07:20:46.985Z,1.17
2023-01-11T07:23:14.288Z,1.27
2023-01-11T07:25:41.407Z,1.85
2023-01-11T07:28:09.103Z,0.90
2023-01-11T07:30:56.648Z,1.15
2023-01-11T07:33:25.798Z,0.90
2023-01-11T07:35:53.101Z,1.13
2023-01-11T07:38:19.987Z,1.10
2023-01-11T07:40:47.067Z,1.10
2023-01-11T07:43:14.833Z,1.88
2023-01-11T07:45:46.467Z,1.20
2023-01-11T07:48:14.814Z,0.75
2023-01-11T07:50:44.583Z,1.10
2023-01-11T07:53:13.091Z,1.30
2023-01-11T07:55:40.875Z,1.15
2023-01-11T07:58:10.646Z,1.10
2023-01-11T08:00:37.483Z,1.10
2023-01-11T08:03:04.553Z,1.00
2023-01-11T08:05:31.427Z,1.00
2023-01-11T08:07:58.385Z,1.25
2023-01-11T08:10:25.293Z,1.02
2023-01-11T08:13:10.897Z,1.17
2023-01-11T08:15:39.137Z,1.20
2023-01-11T08:20:33.809Z,1.25
2023-01-11T08:23:10.506Z,1.00
2023-01-11T08:25:38.026Z,1.25
2023-01-11T08:28:07.279Z,0.93
2023-01-11T08:30:34.952Z,1.42
2023-01-11T08:33:05.611Z,1.08
2023-01-11T08:35:37.009Z,1.00
2023-01-11T08:38:03.806Z,0.90
2023-01-11T08:40:30.634Z,0.90
2023-01-11T08:42:57.911Z,1.10
2023-01-11T08:45:25.352Z,1.30
2023-01-11T08:47:53.456Z,1.00
2023-01-11T08:50:22.075Z,1.20
2023-01-11T08:52:50.995Z,0.95
2023-01-11T08:55:19.015Z,1.60
2023-01-11T08:57:46.025Z,1.33
2023-01-11T09:00:13.766Z,1.35
2023-01-11T09:02:40.839Z,1.30
2023-01-11T09:05:08.229Z,1.30
2023-01-11T09:07:35.092Z,0.85
2023-01-11T09:10:02.051Z,1.25
2023-01-11T09:12:28.914Z,1.20
2023-01-11T09:14:55.886Z,1.50
2023-01-11T09:17:22.771Z,2.00
2023-01-11T09:19:49.808Z,1.48
2023-01-11T09:22:16.644Z,1.50
2023-01-11T09:24:43.450Z,1.40
2023-01-11T09:27:11.792Z,1.20
2023-01-11T09:29:38.925Z,1.20
2023-01-11T09:32:06.181Z,1.60
2023-01-11T09:34:33.290Z,1.55
2023-01-11T09:37:02.587Z,2.03
2023-01-11T09:39:29.943Z,1.85
2023-01-11T09:42:06.166Z,1.33
2023-01-11T09:44:41.440Z,1.30
2023-01-11T09:47:16.464Z,1.67
2023-01-11T09:49:52.278Z,1.40
2023-01-11T09:52:38.208Z,1.40
2023-01-11T09:55:06.402Z,1.40
2023-01-11T10:00:37.450Z,1.40
2023-01-11T10:03:34.555Z,1.40
2023-01-11T10:06:20.688Z,1.42
2023-01-11T10:18:22.777Z,1.42
2023-01-11T10:18:31.357Z,1.70
2023-01-11T10:20:51.599Z,1.52
2023-01-11T10:23:32.105Z,1.73
2023-01-11T10:26:04.944Z,1.80
2023-01-11T10:28:43.238Z,1.73
2023-01-11T10:31:44.837Z,1.60
2023-01-11T10:34:37.947Z,1.50
2023-01-11T10:37:22.406Z,1.83
2023-01-11T10:40:31.282Z,1.70
2023-01-11T10:43:24.302Z,1.42
2023-01-11T10:46:19.363Z,1.83
2023-01-11T10:48:47.026Z,1.55
2023-01-11T10:51:27.724Z,1.50
2023-01-11T10:57:11.285Z,1.58
2023-01-11T10:59:49.712Z,1.60
2023-01-11T11:02:54.267Z,1.52
2023-01-11T11:05:45.473Z,1.80
2023-01-11T11:08:18.365Z,1.33
2023-01-11T11:10:45.114Z,1.40
2023-01-11T11:13:43.180Z,1.55
2023-01-11T11:16:22.756Z,1.58
2023-01-11T11:18:55.705Z,1.40
2023-01-11T11:21:33.689Z,1.65
2023-01-11T11:24:35.812Z,1.45
2023-01-11T11:27:28.351Z,1.60
2023-01-11T11:29:57.200Z,1.52
2023-01-11T11:32:34.987Z,1.50
2023-01-11T11:35:04.454Z,1.45
2023-01-11T11:37:36.448Z,1.52
2023-01-11T11:40:04.278Z,1.70
2023-01-11T11:42:31.154Z,1.58
2023-01-11T11:45:10.299Z,1.75
2023-01-11T11:47:38.386Z,1.50
2023-01-11T11:50:42.036Z,1.90
2023-01-11T11:53:07.560Z,2.05
2023-01-11T11:55:35.497Z,2.08
2023-01-11T11:58:08.479Z,1.67
2023-01-11T12:00:43.099Z,2.03
2023-01-11T12:03:20.356Z,2.00
2023-01-11T12:06:07.493Z,1.83
2023-01-11T12:08:35.900Z,2.20
2023-01-11T12:11:06.424Z,1.70
2023-01-11T12:13:35.544Z,1.70
2023-01-11T12:16:05.532Z,1.77
2023-01-11T12:18:42.367Z,1.90
2023-01-11T12:21:22.087Z,1.60
2023-01-11T12:24:09.650Z,1.60
2023-01-11T12:27:22.953Z,1.90
2023-01-11T12:29:54.431Z,2.10
2023-01-11T12:32:30.538Z,3.20
2023-01-11T12:35:06.595Z,2.05
2023-01-11T12:37:51.231Z,1.80
2023-01-11T12:40:52.184Z,1.65
2023-01-11T12:43:32.956Z,1.58
2023-01-11T12:46:19.987Z,1.63
2023-01-11T12:49:00.898Z,1.83
2023-01-11T12:51:53.675Z,1.58
2023-01-11T12:55:01.728Z,1.73
2023-01-11T12:58:15.387Z,1.83
2023-01-11T13:01:00.555Z,2.03
2023-01-11T13:04:06.637Z,2.10
2023-01-11T13:07:01.221Z,1.80
2023-01-11T13:10:02.978Z,2.10
2023-01-11T13:12:45.795Z,2.15
2023-01-11T13:15:12.667Z,2.03
2023-01-11T13:17:53.019Z,1.95
2023-01-11T13:21:00.045Z,2.00
2023-01-11T13:23:36.109Z,2.00
2023-01-11T13:26:24.032Z,2.30
2023-01-11T13:31:32.319Z,2.05
2023-01-11T13:34:12.102Z,1.90
2023-01-11T13:36:43.838Z,1.83
2023-01-11T13:39:20.711Z,2.30
2023-01-11T13:41:58.777Z,2.00
2023-01-11T13:44:31.155Z,1.90
2023-01-11T13:47:11.485Z,1.92
2023-01-11T13:49:50.432Z,1.88
2023-01-11T13:52:22.531Z,3.60
2023-01-11T13:55:00.468Z,4.25
2023-01-11T13:57:34.497Z,1.92
2023-01-11T14:00:15.065Z,1.60
2023-01-11T14:02:51.592Z,1.40
2023-01-11T14:05:21.788Z,1.50
2023-01-11T14:08:34.849Z,1.30
2023-01-11T14:11:33.125Z,1.40
2023-01-11T14:14:15.639Z,1.50
2023-01-11T14:17:09.913Z,1.42
2023-01-11T14:19:42.801Z,1.30
2023-01-11T14:22:35.505Z,1.25
2023-01-11T14:25:19.602Z,1.60
2023-01-11T14:28:16.588Z,1.60
2023-01-11T14:31:15.483Z,1.50
2023-01-11T14:34:10.964Z,1.40
2023-01-11T14:36:37.792Z,1.73
2023-01-11T14:39:31.759Z,1.80
2023-01-11T14:42:49.931Z,1.58
2023-01-11T14:45:32.468Z,1.70
2023-01-11T14:48:26.323Z,1.70
2023-01-11T14:51:06.985Z,1.65
2023-01-11T14:53:43.154Z,1.70
2023-01-11T14:56:43.683Z,1.70
2023-01-11T14:59:24.627Z,1.50
2023-01-11T15:02:03.510Z,1.77
2023-01-11T15:04:58.671Z,1.77
2023-01-11T15:07:31.589Z,1.58
2023-01-11T15:10:00.419Z,2.05
2023-01-11T15:12:39.171Z,2.00
2023-01-11T15:15:20.756Z,2.08
2023-01-11T15:18:14.951Z,2.00
2023-01-11T15:21:03.875Z,4.20
2023-01-11T15:23:46.017Z,2.35
2023-01-11T15:26:14.463Z,1.90
2023-01-11T15:28:50.064Z,1.80
2023-01-11T15:31:39.002Z,2.00
2023-01-11T15:34:20.923Z,2.10
2023-01-11T15:37:08.064Z,2.03
2023-01-11T15:40:11.789Z,2.30
2023-01-11T15:42:49.757Z,2.08
2023-01-11T15:46:03.753Z,1.90
2023-01-11T15:49:07.797Z,1.90
2023-01-11T15:51:43.560Z,2.35
2023-01-11T15:54:28.973Z,2.05
2023-01-11T15:57:30.408Z,2.30
2023-01-11T16:00:26.478Z,2.10
2023-01-11T16:03:18.060Z,2.00
2023-01-11T16:06:23.341Z,1.80
2023-01-11T16:08:56.877Z,5.38
2023-01-11T16:11:26.745Z,3.10
2023-01-11T16:14:12.902Z,2.83
2023-01-11T16:16:42.815Z,2.05
2023-01-11T16:19:19.856Z,2.08
2023-01-11T16:21:49.923Z,2.30
2023-01-11T16:24:21.834Z,2.38
2023-01-11T16:27:00.022Z,2.55
2023-01-11T16:29:31.789Z,2.53
2023-01-11T16:32:01.540Z,2.53
2023-01-11T16:34:30.600Z,2.20
2023-01-11T16:36:57.861Z,2.40
2023-01-11T16:39:33.630Z,2.13
2023-01-11T16:42:06.086Z,2.50
2023-01-11T16:44:58.056Z,2.30
2023-01-11T16:47:25.078Z,2.70
2023-01-11T16:50:20.908Z,2.60
2023-01-11T16:52:49.253Z,2.70
2023-01-11T16:55:37.852Z,2.38
2023-01-11T16:58:22.350Z,2.60
2023-01-11T17:01:13.394Z,2.50
2023-01-11T17:04:03.011Z,2.47
2023-01-11T17:06:35.304Z,2.88
2023-01-11T17:09:10.969Z,5.88
2023-01-11T17:15:01.784Z,3.08
2023-01-11T17:17:34.209Z,3.35
2023-01-11T17:20:01.867Z,3.15
2023-01-11T17:22:32.064Z,3.42
2023-01-11T17:25:06.373Z,3.65
2023-01-11T17:27:36.464Z,3.45
2023-01-11T17:30:05.493Z,3.90
2023-01-11T17:32:44.296Z,3.90
2023-01-11T17:35:17.346Z,3.75
2023-01-11T17:37:50.084Z,3.55
2023-01-11T17:40:27.325Z,3.83
2023-01-11T17:43:19.113Z,3.37
2023-01-11T17:45:59.245Z,4.20
2023-01-11T17:48:27.444Z,3.80
2023-01-11T17:51:02.829Z,4.20
2023-01-11T17:53:40.052Z,4.10
2023-01-11T17:56:27.379Z,4.75
2023-01-11T17:59:11.843Z,4.18
2023-01-11T18:01:39.350Z,4.43
2023-01-11T18:04:14.998Z,5.18
2023-01-11T18:06:45.070Z,4.70
2023-01-11T18:09:30.614Z,4.82
2023-01-11T18:12:18.481Z,5.00
2023-01-11T18:17:35.059Z,5.50
2023-01-11T18:20:23.125Z,5.30
2023-01-11T18:23:05.043Z,5.80
2023-01-11T18:25:35.248Z,5.88
2023-01-11T18:28:26.453Z,5.05
2023-01-11T18:30:57.827Z,4.80
2023-01-11T18:33:28.454Z,4.43
2023-01-11T18:36:01.691Z,4.97
2023-01-11T18:38:32.619Z,4.47
2023-01-11T18:41:23.772Z,4.22
2023-01-11T18:43:51.797Z,4.55
2023-01-11T18:46:19.030Z,7.30
2023-01-11T18:48:46.711Z,5.43
2023-01-11T18:51:20.047Z,5.03
2023-01-11T18:53:46.906Z,4.90
2023-01-11T18:56:16.230Z,4.53
2023-01-11T18:58:43.353Z,5.20
2023-01-11T19:01:13.978Z,5.75
2023-01-11T19:03:42.017Z,5.25
2023-01-11T19:06:13.588Z,5.38
2023-01-11T19:08:41.159Z,5.60
2023-01-11T19:11:08.172Z,5.38
2023-01-11T19:13:37.736Z,5.50
2023-01-11T19:16:04.978Z,6.00
2023-01-11T19:18:35.207Z,6.63
2023-01-11T19:21:06.499Z,6.75
2023-01-11T19:23:34.217Z,6.47
2023-01-11T19:26:02.148Z,7.22
2023-01-11T19:28:29.540Z,7.00
2023-01-11T19:30:56.422Z,6.80
2023-01-11T19:33:23.311Z,7.45
2023-01-11T19:35:50.134Z,6.63
2023-01-11T19:38:18.457Z,6.68
2023-01-11T19:40:47.964Z,6.90
2023-01-11T19:43:16.319Z,6.68
2023-01-11T19:45:43.116Z,6.40
2023-01-11T19:48:10.849Z,6.55
2023-01-11T19:50:37.648Z,5.85
2023-01-11T19:53:04.612Z,5.13
2023-01-11T19:55:31.467Z,5.70
2023-01-11T19:57:58.426Z,5.78
2023-01-11T20:00:25.667Z,5.88
2023-01-11T20:02:52.676Z,5.47
2023-01-11T20:05:19.601Z,5.38
2023-01-11T20:07:50.355Z,5.80
2023-01-11T20:10:17.743Z,4.95
2023-01-11T20:12:44.550Z,6.00
2023-01-11T20:15:12.012Z,5.63
2023-01-11T20:17:38.853Z,5.47
2023-01-11T20:20:07.125Z,5.43
2023-01-11T20:22:34.339Z,5.72
2023-01-11T20:25:01.255Z,5.70
2023-01-11T20:27:28.499Z,5.65
2023-01-11T20:29:55.443Z,5.37
2023-01-11T20:32:40.246Z,5.47
2023-01-11T20:35:08.410Z,5.75
2023-01-11T20:37:35.242Z,5.70
2023-01-11T20:40:02.082Z,5.45
2023-01-11T20:42:30.221Z,6.45
2023-01-11T20:47:25.364Z,5.60
2023-01-11T20:49:52.372Z,6.38
2023-01-11T20:52:19.217Z,6.47
2023-01-11T20:54:46.171Z,6.82
2023-01-11T20:57:13.127Z,6.63
2023-01-11T20:59:40.102Z,6.97
2023-01-11T21:02:07.614Z,7.35
2023-01-11T21:04:35.951Z,7.88
2023-01-11T21:07:02.797Z,7.18
2023-01-11T21:09:29.862Z,7.15
2023-01-11T21:11:56.756Z,6.88
2023-01-11T21:14:23.688Z,7.03
2023-01-11T21:16:50.655Z,7.40
2023-01-11T21:19:17.479Z,7.93
2023-01-11T21:21:44.608Z,6.95
2023-01-11T21:24:13.843Z,5.55
2023-01-11T21:26:42.330Z,8.43
2023-01-11T21:29:11.450Z,7.80
2023-01-11T21:31:39.942Z,7.38
2023-01-11T21:34:07.052Z,7.22
2023-01-11T21:36:34.519Z,7.80
2023-01-11T21:39:02.660Z,7.57
2023-01-11T21:44:18.559Z,8.00
2023-01-11T21:46:46.018Z,7.75
2023-01-11T21:49:13.833Z,8.15
2023-01-11T21:51:41.893Z,8.07
2023-01-11T21:54:11.873Z,8.82
2023-01-11T21:56:40.169Z,8.77
2023-01-11T21:59:07.206Z,8.15
2023-01-11T22:01:33.965Z,9.45
2023-01-11T22:04:08.189Z,8.70
2023-01-11T22:06:36.776Z,8.68
2023-01-11T22:09:05.021Z,9.30
2023-01-11T22:14:03.928Z,9.43
2023-01-11T22:16:31.791Z,9.13
2023-01-11T22:19:00.108Z,8.70
2023-01-11T22:21:27.359Z,9.05
2023-01-11T22:23:56.747Z,9.10
2023-01-11T22:26:24.617Z,8.85
2023-01-11T22:29:16.938Z,9.10
2023-01-11T22:31:55.327Z,8.48
2023-01-11T22:34:23.219Z,9.00
2023-01-11T22:36:50.480Z,8.98
2023-01-11T22:39:19.521Z,8.73
2023-01-11T22:41:48.370Z,8.98
2023-01-11T22:44:15.735Z,8.88
2023-01-11T22:46:43.763Z,9.50
2023-01-11T22:49:11.665Z,8.52
2023-01-11T22:51:40.439Z,9.02
2023-01-11T22:54:07.666Z,8.77
2023-01-11T22:56:34.575Z,9.67
2023-01-11T22:59:01.818Z,9.70
2023-01-11T23:01:34.759Z,9.10
2023-01-11T23:04:02.336Z,9.63
2023-01-11T23:06:32.543Z,9.45
2023-01-11T23:08:59.729Z,9.73
2023-01-11T23:11:48.204Z,10.50
2023-01-11T23:14:17.936Z,9.45
2023-01-11T23:16:45.863Z,9.07
2023-01-11T23:19:14.660Z,9.68
2023-01-11T23:21:43.450Z,9.25
2023-01-11T23:24:11.769Z,9.30
2023-01-11T23:26:39.116Z,9.35
2023-01-11T23:29:06.279Z,9.02
2023-01-11T23:31:34.013Z,10.15
2023-01-11T23:34:02.680Z,10.30
2023-01-11T23:36:34.169Z,10.27
2023-01-11T23:39:01.499Z,10.68
2023-01-11T23:41:47.145Z,7.70
2023-01-11T23:44:16.771Z,10.05
2023-01-11T23:47:03.632Z,10.15
2023-01-11T23:49:32.053Z,10.90
2023-01-11T23:51:59.887Z,11.45
2023-01-11T23:54:29.494Z,10.43
2023-01-11T23:56:57.515Z,10.55
2023-01-11T23:59:24.582Z,10.43
